createdAt,value
2018-05-06T00:01:38.028Z,16.40
2018-05-06T00:04:05.491Z,16.40
2018-05-06T00:06:34.504Z,16.40
2018-05-06T00:09:02.728Z,16.40
2018-05-06T00:11:30.207Z,16.40
2018-05-06T00:13:57.680Z,16.30
2018-05-06T00:16:25.158Z,16.30
2018-05-06T00:18:53.391Z,16.20
2018-05-06T00:21:20.881Z,16.20
2018-05-06T00:23:49.113Z,16.20
2018-05-06T00:26:16.579Z,16.20
2018-05-06T00:28:44.056Z,16.20
2018-05-06T00:31:11.524Z,16.20
2018-05-06T00:33:39.846Z,16.20
2018-05-06T00:36:07.242Z,16.20
2018-05-06T00:38:34.715Z,16.20
2018-05-06T00:41:02.971Z,16.10
2018-05-06T00:43:30.459Z,16.10
2018-05-06T00:45:58.717Z,16.10
2018-05-06T00:48:26.184Z,16.10
2018-05-06T00:50:55.163Z,16.00
2018-05-06T00:53:22.645Z,16.00
2018-05-06T00:55:50.894Z,16.00
2018-05-06T00:58:18.369Z,16.00
2018-05-06T01:00:46.619Z,16.00
2018-05-06T01:03:14.079Z,16.00
2018-05-06T01:05:41.564Z,16.00
2018-05-06T01:08:09.798Z,15.90
2018-05-06T01:10:37.266Z,15.90
2018-05-06T01:13:04.744Z,15.90
2018-05-06T01:15:32.209Z,15.80
2018-05-06T01:17:59.692Z,15.80
2018-05-06T01:20:27.920Z,15.80
2018-05-06T01:22:55.399Z,15.80
2018-05-06T01:25:22.869Z,15.70
2018-05-06T01:27:51.128Z,15.70
2018-05-06T01:30:18.598Z,15.70
2018-05-06T01:32:46.828Z,15.70
2018-05-06T01:35:14.311Z,15.60
2018-05-06T01:37:41.772Z,15.60
2018-05-06T01:40:09.249Z,15.60
2018-05-06T01:42:38.224Z,15.60
2018-05-06T01:45:07.216Z,15.50
2018-05-06T01:47:34.676Z,15.50
2018-05-06T01:50:02.151Z,15.50
2018-05-06T01:52:29.616Z,15.50
2018-05-06T01:54:58.875Z,15.40
2018-05-06T01:57:26.347Z,15.40
2018-05-06T01:59:53.804Z,15.30
2018-05-06T02:02:21.283Z,15.30
2018-05-06T02:04:48.742Z,15.30
2018-05-06T02:07:16.237Z,15.20
2018-05-06T02:09:43.712Z,15.20
2018-05-06T02:12:11.216Z,15.20
2018-05-06T02:14:38.677Z,15.10
2018-05-06T02:17:06.916Z,15.10
2018-05-06T02:19:34.408Z,15.00
2018-05-06T02:22:01.872Z,15.00
2018-05-06T02:24:30.119Z,14.90
2018-05-06T02:26:57.584Z,14.90
2018-05-06T02:29:25.070Z,14.80
2018-05-06T02:31:53.300Z,14.80
2018-05-06T02:34:21.096Z,14.80
2018-05-06T02:36:48.559Z,14.80
2018-05-06T02:39:16.788Z,14.80
2018-05-06T02:41:44.271Z,14.80
2018-05-06T02:44:11.760Z,14.80
2018-05-06T02:46:40.015Z,14.70
2018-05-06T02:49:07.480Z,14.60
2018-05-06T02:51:35.732Z,14.60
2018-05-06T02:54:03.191Z,14.60
2018-05-06T02:56:30.671Z,14.60
2018-05-06T02:58:58.140Z,14.60
2018-05-06T03:01:26.715Z,14.40
2018-05-06T03:03:54.179Z,14.40
2018-05-06T03:06:22.403Z,14.40
2018-05-06T03:08:49.879Z,14.30
2018-05-06T03:11:17.340Z,14.30
2018-05-06T03:13:44.821Z,14.30
2018-05-06T03:16:12.279Z,14.30
2018-05-06T03:18:40.543Z,14.20
2018-05-06T03:21:08.006Z,14.20
2018-05-06T03:23:35.489Z,14.20
2018-05-06T03:26:03.718Z,14.10
2018-05-06T03:28:31.206Z,14.10
2018-05-06T03:30:58.668Z,14.10
2018-05-06T03:33:26.126Z,14.10
2018-05-06T03:35:53.608Z,14.10
2018-05-06T03:38:21.087Z,14.10
2018-05-06T03:40:48.572Z,14.10
2018-05-06T03:43:16.055Z,14.10
2018-05-06T03:45:43.528Z,14.10
2018-05-06T03:48:11.760Z,14.20
2018-05-06T03:50:39.233Z,14.10
2018-05-06T03:53:06.716Z,14.10
2018-05-06T03:55:35.026Z,14.20
2018-05-06T03:58:15.191Z,14.20
2018-05-06T04:00:46.452Z,14.10
2018-05-06T04:03:13.919Z,14.10
2018-05-06T04:05:41.384Z,14.20
2018-05-06T04:08:08.873Z,14.20
2018-05-06T04:10:37.095Z,14.10
2018-05-06T04:13:04.577Z,14.10
2018-05-06T04:15:32.055Z,14.10
2018-05-06T04:17:59.532Z,14.20
2018-05-06T04:20:27.774Z,14.10
2018-05-06T04:22:55.299Z,14.10
2018-05-06T04:25:22.773Z,14.10
2018-05-06T04:27:50.247Z,14.10
2018-05-06T04:30:17.727Z,14.10
2018-05-06T04:32:45.971Z,14.10
2018-05-06T04:35:13.451Z,14.10
2018-05-06T04:37:40.908Z,14.10
2018-05-06T04:40:08.403Z,14.10
2018-05-06T04:42:35.880Z,14.10
2018-05-06T04:45:03.339Z,14.00
2018-05-06T04:47:30.839Z,14.00
2018-05-06T04:49:58.296Z,14.00
2018-05-06T04:52:25.780Z,14.00
2018-05-06T04:54:53.276Z,14.00
2018-05-06T04:57:20.755Z,14.00
2018-05-06T04:59:48.231Z,14.10
2018-05-06T05:02:15.720Z,14.10
2018-05-06T05:04:43.204Z,14.10
2018-05-06T05:07:10.664Z,14.10
2018-05-06T05:09:38.228Z,14.10
2018-05-06T05:12:05.673Z,14.10
2018-05-06T05:14:33.148Z,14.10
2018-05-06T05:17:00.617Z,14.10
2018-05-06T05:19:28.105Z,14.10
2018-05-06T05:21:56.368Z,14.20
2018-05-06T05:24:23.853Z,14.20
2018-05-06T05:26:52.083Z,14.20
2018-05-06T05:29:19.564Z,14.20
2018-05-06T05:31:47.029Z,14.20
2018-05-06T05:34:14.491Z,14.30
2018-05-06T05:36:42.739Z,14.30
2018-05-06T05:39:10.201Z,14.30
2018-05-06T05:41:37.679Z,14.40
2018-05-06T05:44:05.153Z,14.40
2018-05-06T05:46:33.396Z,14.40
2018-05-06T05:49:00.872Z,14.40
2018-05-06T05:51:29.113Z,14.40
2018-05-06T05:53:56.588Z,14.40
2018-05-06T05:56:24.071Z,14.50
2018-05-06T05:58:52.308Z,14.60
2018-05-06T06:01:19.775Z,14.50
2018-05-06T06:03:47.276Z,14.60
2018-05-06T06:06:15.504Z,14.70
2018-05-06T06:08:43.008Z,14.60
2018-05-06T06:11:11.378Z,14.80
2018-05-06T06:13:39.635Z,14.80
2018-05-06T06:16:07.097Z,14.80
2018-05-06T06:18:35.682Z,14.90
2018-05-06T06:21:03.148Z,14.90
2018-05-06T06:23:31.400Z,15.00
2018-05-06T06:25:58.880Z,15.00
2018-05-06T06:28:27.115Z,15.10
2018-05-06T06:30:54.596Z,15.10
2018-05-06T06:33:22.083Z,15.20
2018-05-06T06:35:49.544Z,15.20
2018-05-06T06:38:17.837Z,15.40
2018-05-06T06:40:45.272Z,15.30
2018-05-06T06:43:13.503Z,15.50
2018-05-06T06:45:40.980Z,15.50
2018-05-06T06:48:08.494Z,15.60
2018-05-06T06:50:36.717Z,15.70
2018-05-06T06:53:04.184Z,15.70
2018-05-06T06:55:31.647Z,15.80
2018-05-06T06:58:00.201Z,16.00
2018-05-06T07:00:27.670Z,16.00
2018-05-06T07:02:55.153Z,16.10
2018-05-06T07:05:23.396Z,16.20
2018-05-06T07:07:50.887Z,16.20
2018-05-06T07:10:19.135Z,16.40
2018-05-06T07:12:46.620Z,16.40
2018-05-06T07:15:14.147Z,16.50
2018-05-06T07:17:41.613Z,16.60
2018-05-06T07:20:09.124Z,16.60
2018-05-06T07:22:36.608Z,16.70
2018-05-06T07:25:04.081Z,16.70
2018-05-06T07:27:31.553Z,16.80
2018-05-06T07:29:59.102Z,16.90
2018-05-06T07:32:27.268Z,17.10
2018-05-06T07:34:54.755Z,17.10
2018-05-06T07:37:23.719Z,17.30
2018-05-06T07:39:51.255Z,17.30
2018-05-06T07:42:18.740Z,17.50
2018-05-06T07:44:46.215Z,17.50
2018-05-06T07:47:13.698Z,17.60
2018-05-06T07:49:41.928Z,17.90
2018-05-06T07:52:09.404Z,17.80
2018-05-06T07:54:36.867Z,18.00
2018-05-06T07:57:04.367Z,18.10
2018-05-06T07:59:31.843Z,18.20
2018-05-06T08:01:59.312Z,18.40
2018-05-06T08:04:26.819Z,18.60
2018-05-06T08:06:55.075Z,18.80
2018-05-06T08:09:22.570Z,18.80
2018-05-06T08:11:50.055Z,18.90
2018-05-06T08:14:17.541Z,19.00
2018-05-06T08:16:45.022Z,19.20
2018-05-06T08:19:12.580Z,19.30
2018-05-06T08:21:40.056Z,19.40
2018-05-06T08:24:08.286Z,19.50
2018-05-06T08:26:35.785Z,19.50
2018-05-06T08:29:03.303Z,19.60
2018-05-06T08:31:30.792Z,19.70
2018-05-06T08:33:58.331Z,19.80
2018-05-06T08:36:25.824Z,20.00
2018-05-06T08:38:54.130Z,20.30
2018-05-06T08:41:21.628Z,20.30
2018-05-06T08:43:49.107Z,20.60
2018-05-06T08:46:16.568Z,20.90
2018-05-06T08:48:44.813Z,21.20
2018-05-06T08:51:12.288Z,21.20
2018-05-06T08:53:39.788Z,21.30
2018-05-06T08:56:07.264Z,21.30
2018-05-06T08:58:34.767Z,21.30
2018-05-06T09:01:02.237Z,21.30
2018-05-06T09:03:30.496Z,21.30
2018-05-06T09:05:57.964Z,21.30
2018-05-06T09:08:25.450Z,21.50
2018-05-06T09:10:52.965Z,21.50
2018-05-06T09:13:20.437Z,21.60
2018-05-06T09:15:47.920Z,21.70
2018-05-06T09:18:16.168Z,21.80
2018-05-06T09:20:43.653Z,21.80
2018-05-06T09:23:11.888Z,22.00
2018-05-06T09:25:39.453Z,22.00
2018-05-06T09:28:06.873Z,22.00
2018-05-06T09:30:34.347Z,22.10
2018-05-06T09:33:01.829Z,22.10
2018-05-06T09:35:29.290Z,22.20
2018-05-06T09:37:56.780Z,22.30
2018-05-06T09:40:25.008Z,22.60
2018-05-06T09:42:52.504Z,22.60
2018-05-06T09:45:20.768Z,22.80
2018-05-06T09:47:49.134Z,22.70
2018-05-06T09:50:16.546Z,22.60
2018-05-06T09:52:44.037Z,22.70
2018-05-06T09:55:11.495Z,22.70
2018-05-06T09:57:38.959Z,22.80
2018-05-06T10:00:06.441Z,22.80
2018-05-06T10:02:34.756Z,23.00
2018-05-06T10:05:02.227Z,23.00
2018-05-06T10:07:29.707Z,23.10
2018-05-06T10:09:57.231Z,23.20
2018-05-06T10:12:24.700Z,23.30
2018-05-06T10:14:52.203Z,23.30
2018-05-06T10:17:19.661Z,23.40
2018-05-06T10:19:47.128Z,23.40
2018-05-06T10:22:15.463Z,23.40
2018-05-06T10:24:42.848Z,23.40
2018-05-06T10:27:10.328Z,23.70
2018-05-06T10:29:38.560Z,23.90
2018-05-06T10:32:06.055Z,23.90
2018-05-06T10:34:34.295Z,23.90
2018-05-06T10:37:01.777Z,23.90
2018-05-06T10:39:29.239Z,23.90
2018-05-06T10:41:56.714Z,24.10
2018-05-06T10:44:25.087Z,24.30
2018-05-06T10:46:53.255Z,24.30
2018-05-06T10:49:21.553Z,24.40
2018-05-06T10:51:49.007Z,24.40
2018-05-06T10:54:17.247Z,24.20
2018-05-06T10:56:44.731Z,24.20
2018-05-06T11:01:24.600Z,24.50
2018-05-06T11:03:52.932Z,24.60
2018-05-06T11:06:20.327Z,24.60
2018-05-06T11:08:48.575Z,24.90
2018-05-06T11:11:16.057Z,24.90
2018-05-06T11:13:43.512Z,25.00
2018-05-06T11:16:11.080Z,25.10
2018-05-06T11:18:39.633Z,25.20
2018-05-06T11:21:07.123Z,25.30
2018-05-06T11:23:35.355Z,25.40
2018-05-06T11:26:02.835Z,25.40
2018-05-06T11:28:30.351Z,25.40
2018-05-06T11:30:57.823Z,25.50
2018-05-06T11:33:25.311Z,25.70
2018-05-06T11:35:52.786Z,25.80
2018-05-06T11:38:21.038Z,26.00
2018-05-06T11:40:48.537Z,25.90
2018-05-06T11:43:16.055Z,26.10
2018-05-06T11:45:43.513Z,26.30
2018-05-06T11:48:11.079Z,26.30
2018-05-06T11:50:38.508Z,26.30
2018-05-06T11:53:05.980Z,26.40
2018-05-06T11:55:33.468Z,26.30
2018-05-06T11:58:01.790Z,26.60
2018-05-06T12:00:29.277Z,26.60
2018-05-06T12:02:56.834Z,26.70
2018-05-06T12:05:24.352Z,26.90
2018-05-06T12:07:51.828Z,27.00
2018-05-06T12:10:19.312Z,27.20
2018-05-06T12:12:46.777Z,27.40
2018-05-06T12:15:14.250Z,27.50
2018-05-06T12:17:43.520Z,28.00
2018-05-06T12:20:10.983Z,28.00
2018-05-06T12:22:38.476Z,28.00
2018-05-06T12:25:06.700Z,28.30
2018-05-06T12:27:34.200Z,28.30
2018-05-06T12:30:01.679Z,28.50
2018-05-06T12:32:29.935Z,28.40
2018-05-06T12:34:58.193Z,28.40
2018-05-06T12:37:25.682Z,28.40
2018-05-06T12:39:53.208Z,28.50
2018-05-06T12:42:20.711Z,28.70
2018-05-06T12:44:48.964Z,29.10
2018-05-06T12:47:16.435Z,29.00
2018-05-06T12:49:44.704Z,29.30
2018-05-06T12:52:12.172Z,29.30
